Time;durP1;ratioP1;P1;durP2;ratioP2;P2;SDS_P1;SDS_P2;PMS_P1;PMS_P2;Temp;Humidity;BMP_temperature;BMP_pressure;BME280_temperature;BME280_humidity;BME280_pressure;Samples;Min_cycle;Max_cycle;Signal;HPM_P1;HPM_P2
2023/09/06 00:01:07;;;;;;;;;20.67;16.67;;;;;26.64;46.41;101396.59;5095605;27;45984;-55
2023/09/06 00:03:35;;;;;;;;;20.00;19.67;;;;;26.63;46.42;101394.88;5093471;27;45638;-56
2023/09/06 00:06:00;;;;;;;;;23.00;19.00;;;;;26.60;47.10;101392.50;5099813;27;45489;-55
2023/09/06 00:08:26;;;;;;;;;11.67;9.67;;;;;26.61;47.24;101396.06;5071447;27;64961;-55
2023/09/06 00:10:51;;;;;;;;;18.33;17.33;;;;;26.57;46.93;101399.16;5095471;27;70380;-56
2023/09/06 00:13:17;;;;;;;;;23.00;20.33;;;;;26.55;46.75;101392.16;5099782;27;45467;-56
2023/09/06 00:15:43;;;;;;;;;25.33;22.00;;;;;26.54;47.34;101390.44;5099563;27;45733;-56
2023/09/06 00:18:08;;;;;;;;;20.00;19.33;;;;;26.53;47.49;101386.88;5086777;27;46782;-56
2023/09/06 00:20:35;;;;;;;;;21.67;18.33;;;;;26.53;47.68;101383.28;5089929;27;71378;-55
2023/09/06 00:23:04;;;;;;;;;19.67;18.67;;;;;26.53;47.40;101391.47;5092113;27;45438;-55
2023/09/06 00:25:33;;;;;;;;;22.00;19.67;;;;;26.50;47.57;101384.47;5092274;27;45418;-55
2023/09/06 00:28:01;;;;;;;;;20.67;17.67;;;;;26.50;47.84;101386.34;5097293;27;45502;-56
2023/09/06 00:30:26;;;;;;;;;18.67;17.33;;;;;26.48;47.67;101385.66;5085702;27;46124;-55
2023/09/06 00:32:52;;;;;;;;;21.00;18.00;;;;;26.43;48.03;101380.72;5082735;27;72824;-56
2023/09/06 00:35:22;;;;;;;;;19.00;19.00;;;;;26.41;48.31;101380.03;5087432;27;45544;-55
2023/09/06 00:37:47;;;;;;;;;22.33;19.67;;;;;26.36;47.81;101380.53;5093335;27;45624;-56
2023/09/06 00:40:21;;;;;;;;;19.33;18.00;;;;;26.32;48.03;101381.91;5079568;27;75154;-55
2023/09/06 00:42:59;;;;;;;;;18.67;18.67;;;;;26.29;48.10;101386.81;5088420;27;45350;-55
2023/09/06 00:45:26;;;;;;;;;21.33;18.67;;;;;26.24;48.42;101380.00;5086112;27;45384;-55
2023/09/06 00:47:53;;;;;;;;;20.00;18.33;;;;;26.22;48.35;101382.03;5073466;28;45826;-55
2023/09/06 00:50:20;;;;;;;;;23.00;17.67;;;;;26.19;48.67;101379.63;5063742;27;46349;-56
2023/09/06 00:52:46;;;;;;;;;18.33;15.33;;;;;26.19;48.31;101387.81;5099069;27;45508;-55
2023/09/06 00:55:12;;;;;;;;;17.33;14.67;;;;;26.16;48.86;101388.13;5099185;27;45181;-56
2023/09/06 00:57:40;;;;;;;;;21.33;19.33;;;;;26.14;48.81;101382.00;5081582;27;45511;-56
2023/09/06 01:00:08;;;;;;;;;22.33;19.00;;;;;26.13;48.42;101385.75;5077247;27;46218;-56
2023/09/06 01:02:33;;;;;;;;;21.00;17.00;;;;;26.12;48.82;101388.66;5089735;27;45497;-55
2023/09/06 01:04:59;;;;;;;;;18.00;16.33;;;;;26.10;48.81;101388.81;5086020;27;45216;-56
2023/09/06 01:07:28;;;;;;;;;17.33;17.33;;;;;26.08;49.03;101388.13;5090253;27;45406;-55
2023/09/06 01:09:53;;;;;;;;;15.00;14.33;;;;;26.08;48.92;101382.66;5094456;27;46239;-56
2023/09/06 01:12:19;;;;;;;;;15.67;15.67;;;;;26.07;49.00;101383.66;5098944;27;45431;-55
2023/09/06 01:14:44;;;;;;;;;17.67;17.33;;;;;26.05;49.43;101385.72;5090180;27;45706;-55
2023/09/06 01:17:10;;;;;;;;;20.00;17.00;;;;;26.04;49.68;101384.00;5087238;27;45429;-56
2023/09/06 01:19:40;;;;;;;;;16.33;14.67;;;;;26.01;49.48;101390.63;5076069;27;46308;-56
2023/09/06 01:22:41;;;;;;;;;15.33;15.33;;;;;25.99;49.15;101383.63;5075922;27;45501;-55
2023/09/06 01:25:08;;;;;;;;;16.67;16.00;;;;;25.98;49.91;101379.19;4977156;28;45437;-55
2023/09/06 01:27:34;;;;;;;;;17.33;15.33;;;;;25.96;49.11;101381.22;5050588;27;45340;-56
2023/09/06 01:29:59;;;;;;;;;16.00;14.67;;;;;25.93;49.94;101375.09;5095853;27;46200;-55
2023/09/06 01:32:27;;;;;;;;;11.33;11.00;;;;;25.91;49.46;101379.84;5086841;27;67495;-56
2023/09/06 01:34:54;;;;;;;;;17.67;14.67;;;;;25.88;49.32;101382.91;5081635;27;45457;-56
2023/09/06 01:37:21;;;;;;;;;20.00;19.00;;;;;25.87;49.67;101381.19;5087540;27;45486;-54
2023/09/06 01:39:46;;;;;;;;;16.00;15.00;;;;;25.85;50.12;101388.69;5088623;27;46205;-56
2023/09/06 01:42:12;;;;;;;;;12.67;12.67;;;;;25.82;49.78;101386.25;5096373;27;45426;-55
2023/09/06 01:44:37;;;;;;;;;16.67;15.33;;;;;25.81;50.07;101381.81;5085443;27;56086;-55
2023/09/06 01:47:03;;;;;;;;;14.67;13.33;;;;;25.79;50.30;101389.31;5084567;27;66925;-56
2023/09/06 01:49:29;;;;;;;;;13.33;13.33;;;;;25.76;50.38;101390.50;5088851;27;47193;-55
2023/09/06 01:51:55;;;;;;;;;17.00;16.00;;;;;25.74;50.56;101394.41;5089513;27;45432;-55
2023/09/06 01:54:20;;;;;;;;;16.00;16.00;;;;;25.72;49.94;101391.84;5093399;27;45331;-56
2023/09/06 01:56:45;;;;;;;;;14.67;14.67;;;;;25.71;49.76;101384.69;5091025;27;45475;-55
2023/09/06 01:59:11;;;;;;;;;15.00;13.00;;;;;25.69;49.25;101386.72;5094894;27;63771;-55
2023/09/06 02:01:36;;;;;;;;;15.33;14.00;;;;;25.68;49.20;101387.75;5090568;27;45508;-55
2023/09/06 02:04:05;;;;;;;;;12.67;12.67;;;;;25.67;49.81;101391.47;5090094;27;60715;-55
2023/09/06 02:06:30;;;;;;;;;12.00;12.00;;;;;25.65;49.94;101393.50;5093069;27;45466;-55
2023/09/06 02:08:56;;;;;;;;;13.00;13.00;;;;;25.63;49.25;101392.81;5085084;27;55586;-55
2023/09/06 02:11:21;;;;;;;;;14.00;13.00;;;;;25.60;49.33;101393.13;5089455;27;45469;-55
2023/09/06 02:13:47;;;;;;;;;13.67;13.33;;;;;25.58;50.10;101398.75;5100255;27;45781;-55
2023/09/06 02:16:12;;;;;;;;;14.67;14.33;;;;;25.56;50.25;101391.75;5073774;27;45465;-55
2023/09/06 02:18:37;;;;;;;;;14.67;13.33;;;;;25.54;50.21;101399.22;5091896;27;45935;-55
2023/09/06 02:21:04;;;;;;;;;10.33;10.00;;;;;25.51;50.48;101396.81;5071580;27;73429;-55
2023/09/06 02:23:30;;;;;;;;;13.00;12.33;;;;;25.48;50.60;101392.56;5090864;27;45486;-55
2023/09/06 02:25:56;;;;;;;;;15.67;14.33;;;;;25.45;50.73;101400.19;5084292;27;57189;-55
2023/09/06 02:28:21;;;;;;;;;15.00;14.33;;;;;25.42;51.16;101395.91;5091942;27;45652;-54
2023/09/06 02:30:47;;;;;;;;;15.67;14.33;;;;;25.38;50.93;101397.25;5089879;27;71026;-55
2023/09/06 02:33:14;;;;;;;;;18.67;16.00;;;;;25.35;51.54;101394.84;5096029;27;55569;-55
2023/09/06 02:35:43;;;;;;;;;16.33;14.67;;;;;25.31;51.32;101390.72;5094370;27;45424;-55
2023/09/06 02:38:10;;;;;;;;;15.33;14.33;;;;;25.25;51.52;101384.91;5094458;27;47031;-55
2023/09/06 02:40:36;;;;;;;;;16.00;16.00;;;;;25.22;52.13;101390.63;5087819;27;45473;-55
2023/09/06 02:43:02;;;;;;;;;18.67;17.67;;;;;25.18;52.38;101386.53;5095761;27;45366;-55
2023/09/06 02:45:36;;;;;;;;;16.67;15.00;;;;;25.14;52.06;101387.03;5091785;27;45373;-54
2023/09/06 02:48:06;;;;;;;;;16.00;14.67;;;;;25.10;52.51;101390.03;5086819;27;47049;-55
2023/09/06 02:50:34;;;;;;;;;17.33;16.00;;;;;25.07;52.60;101389.50;5084679;27;45505;-54
2023/09/06 02:53:01;;;;;;;;;18.00;15.67;;;;;25.03;52.23;101388.09;5077931;27;45498;-55
2023/09/06 02:55:27;;;;;;;;;17.00;15.00;;;;;25.01;52.34;101384.72;5095367;27;45297;-55
2023/09/06 02:57:52;;;;;;;;;14.33;14.33;;;;;24.98;52.62;101388.59;5092368;27;45351;-55
2023/09/06 03:00:26;;;;;;;;;17.00;16.00;;;;;24.94;53.15;101377.16;5082342;27;45623;-54
2023/09/06 03:02:58;;;;;;;;;17.50;15.00;;;;;24.91;52.68;101385.66;5100917;27;45408;-55
2023/09/06 03:05:26;;;;;;;;;16.33;15.00;;;;;24.88;53.01;101385.94;5092763;27;45450;-54
2023/09/06 03:07:53;;;;;;;;;13.67;13.00;;;;;24.87;52.74;101392.41;5100694;27;46422;-54
2023/09/06 03:10:19;;;;;;;;;14.33;8.67;;;;;24.86;52.73;101395.28;5094701;27;45513;-55
2023/09/06 03:12:54;;;;;;;;;14.33;14.00;;;;;24.83;52.74;101399.16;5090854;27;45349;-54
2023/09/06 03:15:22;;;;;;;;;16.00;14.67;;;;;24.82;52.58;101391.16;5082265;27;45752;-55
2023/09/06 03:17:51;;;;;;;;;15.00;15.00;;;;;24.82;52.45;101391.16;5081727;27;45382;-54
2023/09/06 03:20:33;;;;;;;;;12.67;12.67;;;;;24.80;53.11;101387.72;5091205;27;45647;-54
2023/09/06 03:23:01;;;;;;;;;13.67;13.67;;;;;24.79;53.40;101396.94;5081070;27;45443;-54
2023/09/06 03:25:26;;;;;;;;;13.00;13.00;;;;;24.76;52.71;101398.09;5074447;27;45453;-54
2023/09/06 03:27:59;;;;;;;;;13.67;13.67;;;;;24.74;52.64;101389.22;5100296;27;46910;-54
2023/09/06 03:30:27;;;;;;;;;12.67;10.67;;;;;24.73;52.52;101393.81;5088523;27;45609;-54
2023/09/06 03:32:53;;;;;;;;;13.00;13.00;;;;;24.73;52.56;101391.09;5096456;27;45380;-54
2023/09/06 03:35:22;;;;;;;;;13.67;12.67;;;;;24.72;52.66;101388.53;5091233;27;45482;-54
2023/09/06 03:37:49;;;;;;;;;17.33;12.33;;;;;24.70;53.05;101390.56;5095536;27;46929;-54
2023/09/06 03:40:35;;;;;;;;;10.00;10.00;;;;;24.71;53.23;101392.25;5098349;27;45506;-54
2023/09/06 03:43:04;;;;;;;;;15.67;12.67;;;;;24.68;53.17;101387.13;5089150;27;45354;-54
2023/09/06 03:45:31;;;;;;;;;9.00;9.00;;;;;24.66;53.64;101394.59;5094982;27;45315;-54
2023/09/06 03:47:57;;;;;;;;;16.00;15.00;;;;;24.61;53.03;101387.72;5087239;27;45457;-53
2023/09/06 03:50:23;;;;;;;;;12.00;12.00;;;;;24.60;53.66;101396.00;5082439;27;45434;-54
2023/09/06 03:52:50;;;;;;;;;13.33;11.67;;;;;24.57;53.88;101397.19;5081042;27;45456;-55
2023/09/06 03:55:16;;;;;;;;;17.33;13.33;;;;;24.55;53.61;101393.78;5093275;27;45421;-54
2023/09/06 03:57:42;;;;;;;;;19.33;16.33;;;;;24.54;54.14;101391.22;5093083;27;46198;-54
2023/09/06 04:03:07;;;;;;;;;18.00;15.67;;;;;24.48;54.37;101398.09;5046835;27;45380;-54
2023/09/06 04:05:33;;;;;;;;;16.00;14.00;;;;;24.44;54.38;101403.03;5096384;27;45587;-54
2023/09/06 04:08:00;;;;;;;;;16.00;15.33;;;;;24.41;54.76;101400.59;5099959;27;45354;-54
2023/09/06 04:10:35;;;;;;;;;17.00;15.00;;;;;24.39;54.84;101399.03;5089051;27;45298;-54
2023/09/06 04:13:01;;;;;;;;;18.00;17.67;;;;;24.37;54.93;101398.34;5094606;27;45372;-54
2023/09/06 04:15:26;;;;;;;;;18.33;15.00;;;;;24.34;54.86;101402.22;5093278;27;45350;-54
2023/09/06 04:17:58;;;;;;;;;17.67;15.00;;;;;24.33;55.39;101402.38;5095441;27;74556;-53
2023/09/06 04:20:30;;;;;;;;;16.67;16.67;;;;;24.31;55.16;101409.81;5088941;27;45482;-54
2023/09/06 04:22:57;;;;;;;;;16.33;16.33;;;;;24.28;55.53;101403.66;5076351;27;45343;-54
2023/09/06 04:25:23;;;;;;;;;19.00;17.00;;;;;24.26;55.63;101411.13;5099275;27;45479;-54
2023/09/06 04:27:54;;;;;;;;;19.00;16.67;;;;;24.24;55.78;101404.16;5093080;27;46084;-54
2023/09/06 04:30:23;;;;;;;;;19.00;18.00;;;;;24.19;56.33;101401.88;5066250;28;45345;-54
2023/09/06 04:32:49;;;;;;;;;23.00;17.00;;;;;24.17;56.09;101406.63;5092875;27;45363;-54
2023/09/06 04:35:15;;;;;;;;;18.67;17.33;;;;;24.13;56.29;101410.63;5085871;27;45228;-53
2023/09/06 04:37:41;;;;;;;;;16.00;15.67;;;;;24.09;56.32;101406.50;5091225;27;46236;-54
2023/09/06 04:40:11;;;;;;;;;17.67;15.33;;;;;24.06;56.54;101404.09;5094803;27;45409;-54
2023/09/06 04:42:37;;;;;;;;;20.33;18.00;;;;;24.03;56.45;101402.53;5093442;27;45683;-54
2023/09/06 04:45:03;;;;;;;;;14.33;13.33;;;;;24.01;57.21;101409.97;5089886;27;45315;-54
2023/09/06 04:47:30;;;;;;;;;22.33;18.00;;;;;23.99;56.94;101403.84;5085652;27;46235;-54
2023/09/06 04:49:56;;;;;;;;;17.67;17.00;;;;;23.98;56.77;101409.44;5086154;27;45302;-53
2023/09/06 04:52:22;;;;;;;;;17.00;17.00;;;;;23.94;57.07;101407.00;5093722;27;45413;-52
2023/09/06 04:54:47;;;;;;;;;17.00;17.00;;;;;23.93;57.27;101409.88;5099194;27;45509;-53
2023/09/06 04:57:13;;;;;;;;;17.00;17.00;;;;;23.92;57.27;101408.16;5089166;27;46930;-54
2023/09/06 04:59:39;;;;;;;;;21.67;17.00;;;;;23.89;57.72;101411.16;5088641;27;45457;-54
2023/09/06 05:02:04;;;;;;;;;19.00;18.00;;;;;23.87;57.66;101418.56;5087115;27;66273;-55
2023/09/06 05:04:30;;;;;;;;;17.00;17.00;;;;;23.85;57.64;101415.16;5078858;27;66248;-53
2023/09/06 05:06:56;;;;;;;;;17.00;16.33;;;;;23.83;57.51;101414.44;5095536;27;46120;-53
2023/09/06 05:09:21;;;;;;;;;20.67;18.00;;;;;23.81;57.69;101409.19;5096176;27;71054;-54
2023/09/06 05:11:47;;;;;;;;;20.33;18.00;;;;;23.81;57.61;101420.03;5093855;27;45463;-55
2023/09/06 05:14:12;;;;;;;;;19.33;17.67;;;;;23.79;57.96;101414.75;5070206;27;45462;-54
2023/09/06 05:16:38;;;;;;;;;17.00;15.33;;;;;23.77;58.09;101419.47;5080009;27;70011;-55
2023/09/06 05:19:03;;;;;;;;;18.67;17.67;;;;;23.77;58.04;101407.75;5077591;27;69592;-54
2023/09/06 05:21:28;;;;;;;;;16.67;15.00;;;;;23.75;57.84;101416.06;5080751;27;67777;-55
2023/09/06 05:23:53;;;;;;;;;17.67;17.33;;;;;23.75;58.28;101415.19;5087034;27;45544;-54
2023/09/06 05:26:20;;;;;;;;;16.00;14.33;;;;;23.75;58.29;101412.47;5086348;27;75844;-54
2023/09/06 05:28:47;;;;;;;;;15.33;15.33;;;;;23.75;58.41;101412.47;5075980;28;45476;-54
2023/09/06 05:31:12;;;;;;;;;17.00;16.00;;;;;23.77;58.40;101410.47;5084850;27;45376;-53
2023/09/06 05:33:38;;;;;;;;;19.67;17.67;;;;;23.79;58.42;101414.75;5080819;27;45536;-54
2023/09/06 05:36:03;;;;;;;;;14.67;14.67;;;;;23.82;58.43;101421.75;5087940;27;67248;-54
2023/09/06 05:38:28;;;;;;;;;19.67;14.67;;;;;23.85;58.18;101412.47;5086263;27;45477;-54
2023/09/06 05:40:54;;;;;;;;;19.67;14.00;;;;;23.88;58.38;101423.00;5091841;27;67008;-54
2023/09/06 05:43:19;;;;;;;;;18.33;17.00;;;;;23.92;58.42;101413.59;5081227;27;67705;-54
2023/09/06 05:45:44;;;;;;;;;16.67;16.67;;;;;23.95;58.50;101418.75;5067147;27;75099;-56
2023/09/06 05:48:09;;;;;;;;;16.00;16.00;;;;;24.02;58.37;101429.84;5081843;27;73319;-54
2023/09/06 05:50:35;;;;;;;;;20.00;18.00;;;;;24.06;58.23;101429.38;5082484;27;45733;-56
2023/09/06 05:53:00;;;;;;;;;19.00;16.33;;;;;24.14;58.33;101430.50;5103659;27;70199;-54
2023/09/06 05:55:26;;;;;;;;;23.00;19.00;;;;;24.22;58.27;101431.47;5080401;27;56462;-54
2023/09/06 05:57:51;;;;;;;;;16.67;14.67;;;;;24.31;57.63;101428.84;5074128;27;45485;-53
2023/09/06 06:00:17;;;;;;;;;24.67;17.67;;;;;24.40;57.97;101436.09;5082596;27;68076;-54
2023/09/06 06:02:44;;;;;;;;;19.67;16.67;;;;;24.50;57.82;101431.44;5075885;27;45861;-56
2023/09/06 06:05:09;;;;;;;;;18.33;17.67;;;;;24.60;57.84;101431.38;5086726;27;47150;-54
2023/09/06 06:07:35;;;;;;;;;23.33;18.33;;;;;24.72;57.31;101432.91;5084657;27;68922;-53
2023/09/06 06:10:00;;;;;;;;;17.67;16.33;;;;;24.83;56.97;101436.41;5092054;27;53439;-52
2023/09/06 06:12:25;;;;;;;;;18.00;14.67;;;;;24.93;56.50;101437.19;5087177;27;45562;-54
2023/09/06 06:14:51;;;;;;;;;17.67;15.00;;;;;25.05;55.69;101437.78;5084625;27;73747;-54
2023/09/06 06:17:17;;;;;;;;;17.67;15.33;;;;;25.19;55.69;101433.66;5091682;27;45592;-54
2023/09/06 06:19:43;;;;;;;;;12.33;11.33;;;;;25.33;54.99;101433.09;5081566;27;45364;-54
2023/09/06 06:22:09;;;;;;;;;14.67;14.67;;;;;25.81;55.16;101436.31;5087025;27;45462;-53
2023/09/06 06:24:35;;;;;;;;;15.67;13.00;;;;;26.45;53.62;101438.66;5087327;27;46256;-53
2023/09/06 06:27:00;;;;;;;;;13.33;12.00;;;;;27.08;52.70;101439.97;5084059;27;45577;-53
2023/09/06 06:29:26;;;;;;;;;16.67;13.67;;;;;27.59;51.55;101438.09;5082972;27;45421;-54
2023/09/06 06:31:52;;;;;;;;;13.00;12.00;;;;;28.16;49.76;101443.41;5091615;27;45469;-53
2023/09/06 06:34:20;;;;;;;;;17.67;15.33;;;;;28.80;49.32;101439.66;5092644;27;46221;-53
2023/09/06 06:36:46;;;;;;;;;12.33;12.00;;;;;29.44;47.95;101448.56;5080026;27;45303;-54
2023/09/06 06:39:12;;;;;;;;;12.33;12.33;;;;;30.05;46.37;101448.47;5084953;27;45347;-54
2023/09/06 06:41:38;;;;;;;;;15.00;14.33;;;;;30.60;44.70;101448.06;5083197;27;45667;-56
2023/09/06 06:44:03;;;;;;;;;10.33;8.67;;;;;31.10;44.46;101453.69;5095155;27;45370;-54
2023/09/06 06:46:33;;;;;;;;;16.33;15.00;;;;;31.69;43.09;101457.97;5092527;27;45446;-54
2023/09/06 06:48:59;;;;;;;;;15.00;11.33;;;;;32.28;41.75;101461.28;5083424;27;45394;-55
2023/09/06 06:51:34;;;;;;;;;15.33;14.00;;;;;32.78;40.98;101456.41;5096406;27;45361;-54
2023/09/06 06:54:10;;;;;;;;;15.00;13.33;;;;;33.31;39.92;101452.88;5100634;27;46993;-54
2023/09/06 06:56:36;;;;;;;;;16.00;14.67;;;;;33.74;39.47;101451.53;5097199;27;45291;-55
2023/09/06 06:59:05;;;;;;;;;12.00;11.67;;;;;34.22;37.82;101455.84;5100926;27;45308;-55
2023/09/06 07:01:31;;;;;;;;;11.00;10.67;;;;;34.72;36.89;101451.59;5080264;27;45686;-54
2023/09/06 07:04:00;;;;;;;;;14.33;14.00;;;;;35.11;36.02;101453.25;5062161;27;48381;-54
2023/09/06 07:06:26;;;;;;;;;12.00;11.67;;;;;35.46;35.83;101454.66;5090517;27;45331;-53
2023/09/06 07:08:52;;;;;;;;;13.33;12.33;;;;;35.89;35.42;101462.16;5074438;27;45369;-54
2023/09/06 07:11:18;;;;;;;;;11.50;10.00;;;;;35.88;34.46;101468.75;5087260;27;45331;-55
2023/09/06 07:13:46;;;;;;;;;7.00;7.00;;;;;35.03;34.97;101463.72;5098249;27;46100;-54
2023/09/06 07:16:12;;;;;;;;;11.75;10.50;;;;;34.19;35.88;101464.56;5087352;27;45323;-54
2023/09/06 07:18:37;;;;;;;;;9.25;9.25;;;;;33.82;36.02;101475.31;5084452;27;69429;-55
2023/09/06 07:21:03;;;;;;;;;13.33;11.00;;;;;33.96;36.18;101471.47;5080152;27;69248;-54
2023/09/06 07:23:28;;;;;;;;;10.50;9.50;;;;;34.81;35.84;101480.66;5092562;27;46219;-54
2023/09/06 07:25:53;;;;;;;;;9.75;9.75;;;;;35.60;34.50;101475.59;5087330;27;45418;-54
2023/09/06 07:28:22;;;;;;;;;12.67;12.67;;;;;35.68;34.38;101479.13;5080266;27;61080;-55
2023/09/06 07:30:48;;;;;;;;;12.67;12.00;;;;;35.01;34.34;101479.69;5097886;27;45450;-55
2023/09/06 07:33:14;;;;;;;;;10.00;10.00;;;;;34.20;35.32;101480.06;5096600;27;46080;-55
2023/09/06 07:35:40;;;;;;;;;13.75;11.75;;;;;33.45;36.13;101480.41;5091333;27;67450;-54
2023/09/06 07:38:06;;;;;;;;;11.50;10.50;;;;;32.89;36.54;101485.22;5091117;27;45499;-54
2023/09/06 07:40:31;;;;;;;;;13.25;11.00;;;;;32.47;37.16;101489.94;5089894;27;70722;-53
2023/09/06 07:42:56;;;;;;;;;15.33;11.00;;;;;32.05;37.49;101480.84;5068095;28;46251;-54
2023/09/06 07:45:22;;;;;;;;;11.00;11.00;;;;;31.75;38.13;101483.84;5091507;27;45382;-53
2023/09/06 07:47:47;;;;;;;;;14.00;13.00;;;;;31.56;39.00;101480.69;5089651;27;68083;-54
2023/09/06 07:50:12;;;;;;;;;10.00;8.25;;;;;31.39;38.69;101488.38;5099159;27;54391;-53
2023/09/06 07:52:38;;;;;;;;;11.25;9.75;;;;;31.25;38.97;101484.69;5093073;27;45318;-54
2023/09/06 07:55:07;;;;;;;;;12.25;10.00;;;;;31.09;39.62;101496.78;5078591;27;71729;-54
2023/09/06 07:57:33;;;;;;;;;11.00;9.50;;;;;31.01;39.15;101491.38;5061299;27;48348;-53
2023/09/06 07:59:58;;;;;;;;;10.67;9.33;;;;;30.90;39.64;101497.38;5086849;27;45482;-54
2023/09/06 08:02:24;;;;;;;;;10.25;10.25;;;;;30.83;40.32;101497.31;5090611;27;50020;-54
2023/09/06 08:04:50;;;;;;;;;13.25;11.50;;;;;30.75;39.79;101495.53;5052835;27;45442;-53
2023/09/06 08:07:16;;;;;;;;;12.50;9.75;;;;;30.64;40.10;101490.59;5081597;27;45550;-53
2023/09/06 08:09:42;;;;;;;;;10.67;10.00;;;;;30.60;40.49;101492.84;5084831;27;45441;-54
2023/09/06 08:12:07;;;;;;;;;10.50;9.25;;;;;30.56;40.43;101498.91;5067580;27;45467;-53
2023/09/06 08:14:33;;;;;;;;;14.00;12.33;;;;;30.56;40.65;101501.66;5070159;27;58681;-54
2023/09/06 08:16:58;;;;;;;;;8.67;8.67;;;;;30.56;40.57;101505.28;5074966;27;45286;-54
2023/09/06 08:19:23;;;;;;;;;11.67;11.67;;;;;30.60;41.12;101508.47;5091604;27;69616;-52
2023/09/06 08:21:49;;;;;;;;;12.33;11.67;;;;;30.62;40.27;101504.47;5085877;27;46051;-54
2023/09/06 08:24:17;;;;;;;;;9.33;9.33;;;;;30.57;40.96;101503.38;5080380;27;65633;-52
2023/09/06 08:26:42;;;;;;;;;9.25;9.25;;;;;30.54;40.57;101499.13;5084941;27;45476;-53
2023/09/06 08:29:07;;;;;;;;;12.67;12.67;;;;;30.54;40.56;101506.50;5087768;27;45626;-54
2023/09/06 08:31:33;;;;;;;;;12.33;10.00;;;;;30.54;40.44;101501.03;5086729;27;46087;-54
2023/09/06 08:33:59;;;;;;;;;13.50;10.25;;;;;30.57;40.35;101504.19;5087903;27;45515;-53
2023/09/06 08:36:24;;;;;;;;;15.00;10.33;;;;;30.59;40.54;101501.28;5085801;27;45623;-54
2023/09/06 08:38:49;;;;;;;;;10.00;10.00;;;;;30.63;40.64;101491.63;5062634;27;45473;-54
2023/09/06 08:41:15;;;;;;;;;8.50;8.50;;;;;30.67;40.60;101499.25;5078231;27;45667;-54
2023/09/06 08:43:44;;;;;;;;;10.75;9.25;;;;;30.73;40.35;101499.53;5070625;27;45370;-53
2023/09/06 08:46:18;;;;;;;;;11.25;9.50;;;;;30.78;40.35;101506.16;5090578;27;46520;-52
2023/09/06 08:48:44;;;;;;;;;10.67;7.67;;;;;30.83;40.64;101498.19;5078912;27;45491;-53
2023/09/06 08:51:11;;;;;;;;;13.75;9.25;;;;;30.91;40.61;101502.72;5090973;27;45449;-54
2023/09/06 08:53:39;;;;;;;;;11.33;10.00;;;;;31.02;40.21;101504.91;5072059;27;45547;-53
2023/09/06 08:56:05;;;;;;;;;15.00;9.75;;;;;31.80;40.12;101498.66;5071069;27;45561;-52
2023/09/06 08:58:31;;;;;;;;;10.67;10.33;;;;;33.79;38.07;101506.94;5080764;27;68332;-55
2023/09/06 09:00:57;;;;;;;;;13.00;10.00;;;;;35.99;34.89;101508.63;5064442;27;55173;-54
2023/09/06 09:03:22;;;;;;;;;13.50;9.50;;;;;37.96;32.80;101512.78;5084791;27;72174;-54
2023/09/06 09:05:47;;;;;;;;;10.25;8.50;;;;;39.67;31.17;101503.84;5087454;27;45432;-55
2023/09/06 09:08:13;;;;;;;;;12.75;10.25;;;;;41.08;28.59;101501.63;5094446;27;54585;-55
2023/09/06 09:10:39;;;;;;;;;10.00;8.75;;;;;42.09;27.94;101507.34;5088447;27;72662;-55
2023/09/06 09:13:04;;;;;;;;;13.75;13.75;;;;;42.74;26.80;101501.44;5082079;27;71355;-57
2023/09/06 09:15:31;;;;;;;;;14.00;9.33;;;;;42.96;25.73;101498.38;5081916;27;52341;-55
2023/09/06 09:17:58;;;;;;;;;12.75;10.75;;;;;43.36;25.08;101496.69;5076354;27;45485;-54
2023/09/06 09:20:25;;;;;;;;;9.25;8.00;;;;;44.05;24.73;101488.72;5093020;27;46373;-55
2023/09/06 09:22:51;;;;;;;;;10.50;8.25;;;;;44.78;23.64;101489.19;5081205;27;45794;-55
2023/09/06 09:25:23;;;;;;;;;12.00;8.00;;;;;45.30;22.74;101503.63;5091323;27;45525;-56
2023/09/06 09:27:51;;;;;;;;;12.75;10.25;;;;;45.76;22.93;101496.69;5087514;27;45522;-55
2023/09/06 09:30:18;;;;;;;;;11.25;7.25;;;;;46.18;21.73;101505.47;5082208;27;46472;-56
2023/09/06 09:32:43;;;;;;;;;8.00;6.50;;;;;46.55;21.25;101499.06;5084818;27;46575;-56
2023/09/06 09:35:12;;;;;;;;;11.75;9.50;;;;;46.76;20.50;101490.34;5086951;27;45454;-56
2023/09/06 09:37:42;;;;;;;;;10.75;6.25;;;;;46.96;19.94;101496.75;5080490;27;45375;-57
2023/09/06 09:40:21;;;;;;;;;9.00;8.25;;;;;47.12;20.07;101492.56;5086561;27;46880;-57
2023/09/06 09:42:56;;;;;;;;;9.00;7.25;;;;;47.32;20.08;101494.16;5087468;27;45379;-57
2023/09/06 09:45:24;;;;;;;;;11.50;9.00;;;;;47.54;19.59;101493.47;5085901;27;45545;-57
2023/09/06 09:47:51;;;;;;;;;9.75;8.50;;;;;47.73;19.53;101495.34;5071842;27;45547;-57
2023/09/06 09:50:17;;;;;;;;;10.25;9.00;;;;;47.84;18.31;101501.66;5082778;27;45505;-57
2023/09/06 09:52:44;;;;;;;;;9.75;8.25;;;;;47.80;19.50;101500.59;5072086;27;45450;-57
2023/09/06 09:55:15;;;;;;;;;7.00;7.00;;;;;47.86;18.59;101496.53;5085841;27;45404;-57
2023/09/06 09:57:43;;;;;;;;;9.50;8.75;;;;;47.87;18.07;101501.03;5055674;27;46027;-57
2023/09/06 10:00:11;;;;;;;;;6.25;6.00;;;;;47.75;18.86;101493.06;5084316;27;46363;-57
2023/09/06 10:02:37;;;;;;;;;9.50;9.50;;;;;47.65;18.93;101498.91;5072547;27;45513;-57
2023/09/06 10:05:03;;;;;;;;;8.67;8.67;;;;;47.70;18.99;101496.00;5081675;27;64651;-57
2023/09/06 10:07:30;;;;;;;;;6.50;6.50;;;;;47.71;18.41;101486.41;5077993;27;46017;-57
2023/09/06 10:09:56;;;;;;;;;8.25;7.50;;;;;47.79;18.63;101484.84;5072992;27;46924;-57
2023/09/06 10:12:23;;;;;;;;;10.50;7.75;;;;;47.85;18.12;101481.63;5087252;27;52560;-57
2023/09/06 10:14:49;;;;;;;;;11.25;9.00;;;;;47.79;18.50;101479.19;5083301;27;66444;-57
2023/09/06 10:17:14;;;;;;;;;10.33;8.67;;;;;47.72;17.94;101474.00;5082696;27;69124;-57
2023/09/06 10:19:40;;;;;;;;;8.67;8.67;;;;;47.64;18.93;101474.72;5074997;27;77835;-57
2023/09/06 10:22:08;;;;;;;;;10.00;8.50;;;;;47.66;18.26;101476.06;5093114;27;45520;-57
2023/09/06 10:24:35;;;;;;;;;9.00;9.00;;;;;47.62;17.59;101471.38;5070603;27;46077;-57
2023/09/06 10:27:02;;;;;;;;;6.67;6.33;;;;;47.50;18.13;101469.91;5056981;27;45680;-57
2023/09/06 10:29:32;;;;;;;;;8.75;8.00;;;;;47.36;18.56;101471.84;5074029;27;46313;-57
2023/09/06 10:32:04;;;;;;;;;9.25;9.25;;;;;47.31;18.83;101467.16;5076500;27;45533;-57
2023/09/06 10:34:36;;;;;;;;;7.00;7.00;;;;;47.25;19.49;101465.59;5089438;27;45509;-57
2023/09/06 10:37:06;;;;;;;;;8.33;8.00;;;;;47.10;18.71;101461.06;5070123;27;45489;-57
2023/09/06 10:39:31;;;;;;;;;10.00;10.00;;;;;46.95;19.36;101462.19;5088595;27;46489;-57
2023/09/06 10:42:11;;;;;;;;;8.00;8.00;;;;;46.76;19.67;101456.59;5088369;27;45402;-57
2023/09/06 10:45:09;;;;;;;;;10.67;10.67;;;;;46.46;19.00;101452.28;5076814;27;45441;-57
2023/09/06 10:47:35;;;;;;;;;8.67;8.67;;;;;46.24;19.14;101460.13;5045335;27;45726;-57
2023/09/06 10:50:15;;;;;;;;;6.00;6.00;;;;;46.10;19.29;101458.38;5103745;27;46260;-57
2023/09/06 10:52:58;;;;;;;;;10.00;10.00;;;;;45.86;19.36;101448.84;5087994;27;45552;-57
2023/09/06 10:55:30;;;;;;;;;7.67;7.67;;;;;45.63;19.86;101442.09;5073902;27;45496;-59
2023/09/06 10:58:04;;;;;;;;;10.00;8.33;;;;;45.33;19.97;101446.91;5084953;27;46351;-57
2023/09/06 11:00:31;;;;;;;;;11.25;9.75;;;;;44.95;20.27;101443.88;5088619;27;46596;-57
2023/09/06 11:03:06;;;;;;;;;8.33;8.33;;;;;44.61;20.87;101444.69;5086864;27;45362;-57
2023/09/06 11:05:35;;;;;;;;;9.67;9.67;;;;;44.42;20.46;101439.81;5087932;27;45630;-57
2023/09/06 11:08:02;;;;;;;;;12.00;10.33;;;;;44.34;21.31;101440.41;5073886;27;45672;-57
2023/09/06 11:10:27;;;;;;;;;10.67;8.33;;;;;44.46;20.83;101442.88;5087914;27;47221;-57
2023/09/06 11:12:54;;;;;;;;;8.67;8.67;;;;;44.55;20.65;101437.44;5068651;27;45406;-57
2023/09/06 11:15:20;;;;;;;;;8.67;7.67;;;;;44.60;20.75;101431.81;5083075;27;45250;-57